createdAt,value
2016-09-15T00:01:27.442Z,1005.09
2016-09-15T00:16:27.442Z,1004.95
2016-09-15T00:31:34.094Z,1004.89
2016-09-15T00:46:31.548Z,1004.73
2016-09-15T01:01:27.438Z,1004.79
2016-09-15T01:16:27.449Z,1004.79
2016-09-15T01:31:27.450Z,1004.65
2016-09-15T01:46:27.506Z,1004.66
2016-09-15T02:01:34.050Z,1004.58
2016-09-15T02:16:39.095Z,1004.58
2016-09-15T02:31:34.058Z,1004.49
2016-09-15T02:46:27.500Z,1004.48
2016-09-15T03:01:27.461Z,1004.42
2016-09-15T03:16:31.672Z,1004.24
2016-09-15T03:31:38.411Z,1004.43
2016-09-15T03:46:34.131Z,1004.34
2016-09-15T04:01:27.498Z,1004.5
2016-09-15T04:16:32.569Z,1004.55
2016-09-15T04:31:27.487Z,1004.43
2016-09-15T04:46:33.845Z,1004.51
2016-09-15T05:01:33.703Z,1004.53
2016-09-15T05:16:27.478Z,1004.61
2016-09-15T05:31:38.390Z,1004.82
2016-09-15T05:46:42.481Z,1005.1
2016-09-15T06:01:34.100Z,1005.11
2016-09-15T06:16:27.504Z,1005.11
2016-09-15T06:31:27.501Z,1005.1
2016-09-15T06:46:32.436Z,1004.88
2016-09-15T07:01:33.657Z,1004.78
2016-09-15T07:16:27.525Z,1004.96
2016-09-15T07:31:34.146Z,1004.77
2016-09-15T07:46:27.527Z,1004.84
2016-09-15T08:01:32.464Z,1004.77
2016-09-15T08:16:37.576Z,1004.68
2016-09-15T08:31:27.536Z,1004.7
2016-09-15T08:46:27.540Z,1004.6
2016-09-15T09:01:32.580Z,1004.29
2016-09-15T09:16:38.715Z,1004.27
2016-09-15T09:31:27.551Z,1003.9
2016-09-15T09:46:38.358Z,1003.7
2016-09-15T10:01:29.558Z,1003.7
2016-09-15T10:16:27.549Z,1003.71
2016-09-15T10:31:27.584Z,1003.57
2016-09-15T10:46:27.564Z,1003.41
2016-09-15T11:01:27.584Z,1003.44
2016-09-15T11:16:32.606Z,1003.3
2016-09-15T11:31:36.040Z,1003.22
2016-09-15T11:46:39.995Z,1003.01
2016-09-15T12:01:31.785Z,1002.86
2016-09-15T12:16:27.563Z,1002.63
2016-09-15T12:31:27.573Z,1002.58
2016-09-15T12:46:27.612Z,1002.49
2016-09-15T13:01:27.565Z,1002.17
2016-09-15T13:16:32.500Z,1002.26
2016-09-15T13:31:33.576Z,1002.07
2016-09-15T13:46:31.728Z,1002.01
2016-09-15T14:01:33.794Z,1001.92
2016-09-15T14:16:32.620Z,1001.88
2016-09-15T14:31:31.691Z,1001.61
2016-09-15T14:46:31.741Z,1001.49
2016-09-15T15:01:35.808Z,1001.35
2016-09-15T15:16:27.593Z,1001.29
2016-09-15T15:31:27.589Z,1001.27
2016-09-15T15:46:27.590Z,1001.39
2016-09-15T16:01:28.529Z,1001.29
2016-09-15T16:16:27.608Z,1001.47
2016-09-15T16:31:27.597Z,1001.57
2016-09-15T16:46:35.930Z,1001.66
2016-09-15T17:01:27.647Z,1001.79
2016-09-15T17:16:33.622Z,1001.85
2016-09-15T17:46:30.190Z,1108.32
2016-09-15T17:57:06.385Z,1108.26
2016-09-15T18:11:56.285Z,1108.2
2016-09-15T18:27:01.252Z,1108.26
2016-09-15T18:41:56.257Z,1108.26
2016-09-15T18:56:56.267Z,1108.26
2016-09-15T19:11:56.278Z,1108.26
2016-09-15T19:26:56.279Z,1108.26
2016-09-15T19:41:56.319Z,1108.26
2016-09-15T19:57:01.054Z,1108.24
2016-09-15T20:12:01.331Z,1108.2
2016-09-15T20:27:02.921Z,1108.26
2016-09-15T20:41:56.334Z,1108.18
2016-09-15T20:57:01.288Z,1108.3
2016-09-15T21:11:56.280Z,1108.3
2016-09-15T21:27:00.884Z,1108.22
2016-09-15T21:41:56.316Z,1108.24
2016-09-15T21:56:56.278Z,1108.33
2016-09-15T22:11:56.282Z,1108.28
2016-09-15T22:26:58.300Z,1108.28
2016-09-15T22:41:56.344Z,1108.24
2016-09-15T22:57:02.621Z,1108.28
2016-09-15T23:11:56.309Z,1108.28
2016-09-15T23:27:00.928Z,1108.28
2016-09-15T23:42:00.570Z,1108.22
2016-09-15T23:57:00.550Z,1108.2
